Sevierville, TN

11:28 AM EDT on April 27, 2017 (GMT -0400)
Murphy Rd | | Change Station

Elev 958 ft 35.85 °N, 83.57 °W | Updated 20 seconds ago

Overcast
Overcast
64.9 °F
Feels Like 64.9 °F
N
0.0
Wind Variable Wind from NW

Today
High -- | Low -- °F
--% Chance of Precip.
Yesterday
High -- | Low -- °F
Precip. -- in
Pressure 29.74 in
Visibility 2.5 miles
Clouds Mostly Cloudy 1000 ft
Mostly Cloudy 2200 ft
Overcast 3000 ft
Dew Point 60 °F
Humidity 86%
Rainfall 0.07 in
Snow Depth Not available.
6:46 AM 8:18 PM
New Moon, 2% visible
SPECI KTYS 271505Z 34005KT 2 1/2SM -RA BR BKN010 BKN022 OVC030 17/16 A2974 RMK AO2 SFC VIS 3 LTG DSNT E P0001 T01670156
Pressure 29.74 in
Visibility 2.5 miles
Clouds Mostly Cloudy 1000 ft
Mostly Cloudy 2200 ft
Overcast 3000 ft
Dew Point 60 °F
Humidity 86%
Rainfall 0.07 in
Snow Depth Not available.
6:46 AM 8:18 PM
New Moon, 2% visible
SPECI KTYS 271505Z 34005KT 2 1/2SM -RA BR BKN010 BKN022 OVC030 17/16 A2974 RMK AO2 SFC VIS 3 LTG DSNT E P0001 T01670156

Get Severe Weather Alerts

Thanks for signing up!

Be on the lookout for a verification email in your inbox.

You'll start receiving the daily forecast at 8 AM.

×

10-Day Weather Forecast

Almanac

Astronomy

Apr. 27, 2017 Rise Set
Actual Time
Civil Twilight
Nautical Twilight
Astronomical Twilight
Moon
Length of Visible Light
Length of Day
Tomorrow will be .
, % of the Moon is Illuminated

Today's Extremes

State Highs State Lows

Community

WunderPhotos

WunderBlog® & News

Nearby

Air Quality

  Air Quality AQ Index Pollutant
Not available.

Snow Depth

Station Depth Elevation

Earthquake Activity

City Distance Mag. Time & Date
Minimum magnitude displayed is 2.5.

Coastal Water Temperatures

Place Temperature

Stations

Nearby Weather Stations

Station Location Temp. Windchill Dew Point Humidity Wind Precip. Elev Updated Type
                   

Watches & Warnings

There are currently no watches in effect.